sensor_id;sensor_type;location;lat;lon;timestamp;P1;P2;P0
64570;PMS5003;61095;52.454;16.948;2023-05-23T06:01:18;20.33;20.00;14.00
64570;PMS5003;61095;52.454;16.948;2023-05-23T06:06:19;20.33;19.33;13.00
64570;PMS5003;61095;52.454;16.948;2023-05-23T06:11:19;19.33;19.00;12.00
64570;PMS5003;61095;52.454;16.948;2023-05-23T06:16:21;19.33;19.00;12.00
64570;PMS5003;61095;52.454;16.948;2023-05-23T06:21:21;20.67;20.00;13.00
64570;PMS5003;61095;52.454;16.948;2023-05-23T06:26:22;20.00;20.00;12.00
64570;PMS5003;61095;52.454;16.948;2023-05-23T06:31:23;19.00;19.00;13.00
64570;PMS5003;61095;52.454;16.948;2023-05-23T06:36:24;19.00;18.00;10.00
64570;PMS5003;61095;52.454;16.948;2023-05-23T06:41:24;17.00;16.67;8.00
64570;PMS5003;61095;52.454;16.948;2023-05-23T06:46:26;16.00;16.00;9.00
64570;PMS5003;61095;52.454;16.948;2023-05-23T06:51:26;17.00;16.00;8.67
64570;PMS5003;61095;52.454;16.948;2023-05-23T06:56:27;17.00;17.00;9.00
64570;PMS5003;61095;52.454;16.948;2023-05-23T07:01:28;17.00;17.00;8.00
64570;PMS5003;61095;52.454;16.948;2023-05-23T07:06:29;17.00;16.00;8.00
64570;PMS5003;61095;52.454;16.948;2023-05-23T07:11:29;18.00;17.67;8.00
64570;PMS5003;61095;52.454;16.948;2023-05-23T07:16:31;18.00;18.00;8.00
64570;PMS5003;61095;52.454;16.948;2023-05-23T07:21:31;17.00;17.00;8.33
64570;PMS5003;61095;52.454;16.948;2023-05-23T07:26:34;16.00;16.00;8.00
64570;PMS5003;61095;52.454;16.948;2023-05-23T07:31:36;16.00;15.00;6.00
64570;PMS5003;61095;52.454;16.948;2023-05-23T07:36:36;17.00;15.00;8.33
64570;PMS5003;61095;52.454;16.948;2023-05-23T07:41:37;16.00;15.00;7.33
64570;PMS5003;61095;52.454;16.948;2023-05-23T07:46:39;17.00;15.00;7.67
64570;PMS5003;61095;52.454;16.948;2023-05-23T07:51:39;16.00;14.00;8.00
64570;PMS5003;61095;52.454;16.948;2023-05-23T07:56:39;15.00;13.00;7.33
64570;PMS5003;61095;52.454;16.948;2023-05-23T08:01:41;14.00;13.00;9.00
64570;PMS5003;61095;52.454;16.948;2023-05-23T08:06:41;14.00;13.00;9.00
64570;PMS5003;61095;52.454;16.948;2023-05-23T08:11:42;14.33;12.33;7.33
64570;PMS5003;61095;52.454;16.948;2023-05-23T08:16:43;13.00;11.00;7.00
64570;PMS5003;61095;52.454;16.948;2023-05-23T08:21:44;12.00;12.00;7.00
64570;PMS5003;61095;52.454;16.948;2023-05-23T08:26:44;9.00;9.00;4.33
64570;PMS5003;61095;52.454;16.948;2023-05-23T08:31:46;10.67;10.67;6.00
64570;PMS5003;61095;52.454;16.948;2023-05-23T08:36:47;10.00;10.00;5.00
64570;PMS5003;61095;52.454;16.948;2023-05-23T08:41:47;11.33;11.33;5.33
64570;PMS5003;61095;52.454;16.948;2023-05-23T08:46:49;8.00;8.00;4.00
64570;PMS5003;61095;52.454;16.948;2023-05-23T08:51:52;8.00;8.00;4.00
64570;PMS5003;61095;52.454;16.948;2023-05-23T08:57:00;8.33;8.33;4.67
64570;PMS5003;61095;52.454;16.948;2023-05-23T09:02:02;9.33;9.33;5.33
64570;PMS5003;61095;52.454;16.948;2023-05-23T09:07:09;8.00;8.00;6.00
64570;PMS5003;61095;52.454;16.948;2023-05-23T09:12:11;8.00;8.00;5.00
64570;PMS5003;61095;52.454;16.948;2023-05-23T09:17:16;7.00;7.00;4.00
64570;PMS5003;61095;52.454;16.948;2023-05-23T09:22:21;7.00;7.00;5.00
64570;PMS5003;61095;52.454;16.948;2023-05-23T09:27:23;7.33;7.33;5.00
64570;PMS5003;61095;52.454;16.948;2023-05-23T09:32:25;7.00;7.00;5.00
64570;PMS5003;61095;52.454;16.948;2023-05-23T09:37:29;7.00;7.00;3.00
64570;PMS5003;61095;52.454;16.948;2023-05-23T09:42:30;6.00;6.00;4.00
64570;PMS5003;61095;52.454;16.948;2023-05-23T09:47:33;6.00;6.00;4.00
64570;PMS5003;61095;52.454;16.948;2023-05-23T09:52:35;7.67;7.67;4.00
64570;PMS5003;61095;52.454;16.948;2023-05-23T09:57:37;8.00;8.00;4.67
64570;PMS5003;61095;52.454;16.948;2023-05-23T10:08:01;8.00;7.67;5.00
64570;PMS5003;61095;52.454;16.948;2023-05-23T10:13:07;8.00;7.67;5.00
64570;PMS5003;61095;52.454;16.948;2023-05-23T10:18:11;9.00;8.67;5.00
64570;PMS5003;61095;52.454;16.948;2023-05-23T10:23:16;8.00;8.00;5.00
64570;PMS5003;61095;52.454;16.948;2023-05-23T10:28:18;9.00;9.00;4.67
64570;PMS5003;61095;52.454;16.948;2023-05-23T10:33:20;9.00;8.00;4.00
64570;PMS5003;61095;52.454;16.948;2023-05-23T10:38:30;8.00;8.00;5.00
64570;PMS5003;61095;52.454;16.948;2023-05-23T10:43:39;9.00;9.00;5.00
64570;PMS5003;61095;52.454;16.948;2023-05-23T10:48:45;8.00;8.00;4.00
64570;PMS5003;61095;52.454;16.948;2023-05-23T10:53:46;7.67;7.67;2.00
64570;PMS5003;61095;52.454;16.948;2023-05-23T10:58:53;10.00;10.00;5.00
64570;PMS5003;61095;52.454;16.948;2023-05-23T11:03:55;9.00;9.00;6.33
64570;PMS5003;61095;52.454;16.948;2023-05-23T11:09:00;9.33;9.00;6.00
64570;PMS5003;61095;52.454;16.948;2023-05-23T11:14:02;8.33;8.00;5.00
64570;PMS5003;61095;52.454;16.948;2023-05-23T11:19:23;5.00;5.00;4.00
64570;PMS5003;61095;52.454;16.948;2023-05-23T11:29:59;7.00;6.00;4.00
64570;PMS5003;61095;52.454;16.948;2023-05-23T11:35:02;7.33;6.33;4.33
64570;PMS5003;61095;52.454;16.948;2023-05-23T11:45:30;8.00;8.00;4.00
64570;PMS5003;61095;52.454;16.948;2023-05-23T11:50:32;7.33;7.33;4.00
64570;PMS5003;61095;52.454;16.948;2023-05-23T11:55:33;9.67;9.67;5.00
64570;PMS5003;61095;52.454;16.948;2023-05-23T12:00:33;9.00;9.00;5.00
64570;PMS5003;61095;52.454;16.948;2023-05-23T12:05:35;11.33;11.33;6.33
64570;PMS5003;61095;52.454;16.948;2023-05-23T12:10:36;12.67;12.67;7.00
64570;PMS5003;61095;52.454;16.948;2023-05-23T12:15:36;26.00;25.00;16.00
64570;PMS5003;61095;52.454;16.948;2023-05-23T12:20:40;25.33;24.67;17.00
64570;PMS5003;61095;52.454;16.948;2023-05-23T12:25:41;18.00;18.00;12.00
64570;PMS5003;61095;52.454;16.948;2023-05-23T12:30:42;15.00;15.00;8.00
64570;PMS5003;61095;52.454;16.948;2023-05-23T12:35:44;17.00;14.00;8.00
64570;PMS5003;61095;52.454;16.948;2023-05-23T12:40:45;15.00;13.00;5.00
64570;PMS5003;61095;52.454;16.948;2023-05-23T12:45:45;16.00;15.00;8.00
64570;PMS5003;61095;52.454;16.948;2023-05-23T12:50:47;17.67;16.67;9.67
64570;PMS5003;61095;52.454;16.948;2023-05-23T12:55:47;17.67;17.67;9.00
64570;PMS5003;61095;52.454;16.948;2023-05-23T13:00:47;18.00;17.00;8.00
64570;PMS5003;61095;52.454;16.948;2023-05-23T13:05:49;18.00;17.00;7.00
64570;PMS5003;61095;52.454;16.948;2023-05-23T13:10:49;16.33;15.67;7.67
64570;PMS5003;61095;52.454;16.948;2023-05-23T13:15:51;16.67;16.67;10.00
64570;PMS5003;61095;52.454;16.948;2023-05-23T13:20:53;18.33;18.00;9.00
64570;PMS5003;61095;52.454;16.948;2023-05-23T13:25:54;20.00;20.00;10.33
64570;PMS5003;61095;52.454;16.948;2023-05-23T13:30:54;20.00;19.00;8.00
64570;PMS5003;61095;52.454;16.948;2023-05-23T13:35:56;19.00;19.00;10.00
64570;PMS5003;61095;52.454;16.948;2023-05-23T13:40:56;20.67;20.00;11.00
64570;PMS5003;61095;52.454;16.948;2023-05-23T13:45:57;20.00;19.00;10.67
64570;PMS5003;61095;52.454;16.948;2023-05-23T13:50:59;20.00;19.00;11.00
64570;PMS5003;61095;52.454;16.948;2023-05-23T13:56:00;32.33;29.67;20.67
64570;PMS5003;61095;52.454;16.948;2023-05-23T14:01:00;30.33;29.00;20.33
64570;PMS5003;61095;52.454;16.948;2023-05-23T14:06:02;24.00;23.00;15.00
64570;PMS5003;61095;52.454;16.948;2023-05-23T14:11:03;24.00;24.00;16.00
64570;PMS5003;61095;52.454;16.948;2023-05-23T14:16:03;24.67;24.33;15.00
64570;PMS5003;61095;52.454;16.948;2023-05-23T14:21:05;37.33;33.00;23.00
64570;PMS5003;61095;52.454;16.948;2023-05-23T14:26:06;41.67;36.00;25.67
64570;PMS5003;61095;52.454;16.948;2023-05-23T14:31:06;32.00;31.00;20.00
64570;PMS5003;61095;52.454;16.948;2023-05-23T14:36:09;30.00;28.67;19.00
64570;PMS5003;61095;52.454;16.948;2023-05-23T14:41:09;30.00;29.00;19.00
64570;PMS5003;61095;52.454;16.948;2023-05-23T14:46:10;54.33;45.67;30.33
64570;PMS5003;61095;52.454;16.948;2023-05-23T14:51:12;47.67;40.67;28.00
64570;PMS5003;61095;52.454;16.948;2023-05-23T14:56:13;34.33;31.00;22.00
64570;PMS5003;61095;52.454;16.948;2023-05-23T15:01:13;35.33;32.33;22.00
64570;PMS5003;61095;52.454;16.948;2023-05-23T15:06:15;31.67;30.33;21.00
64570;PMS5003;61095;52.454;16.948;2023-05-23T15:11:16;25.00;25.00;18.00
64570;PMS5003;61095;52.454;16.948;2023-05-23T15:16:16;27.67;27.67;19.00
64570;PMS5003;61095;52.454;16.948;2023-05-23T15:21:18;25.00;24.00;19.00
64570;PMS5003;61095;52.454;16.948;2023-05-23T15:26:19;23.00;22.33;17.00
64570;PMS5003;61095;52.454;16.948;2023-05-23T15:31:19;21.00;21.00;16.00
64570;PMS5003;61095;52.454;16.948;2023-05-23T15:36:21;19.33;19.33;15.00
64570;PMS5003;61095;52.454;16.948;2023-05-23T15:41:21;21.00;21.00;14.00
64570;PMS5003;61095;52.454;16.948;2023-05-23T15:46:22;22.33;22.00;14.00
64570;PMS5003;61095;52.454;16.948;2023-05-23T15:51:24;23.00;22.00;15.00
64570;PMS5003;61095;52.454;16.948;2023-05-23T15:56:24;21.33;20.00;14.00
64570;PMS5003;61095;52.454;16.948;2023-05-23T16:01:24;23.00;21.67;15.00
64570;PMS5003;61095;52.454;16.948;2023-05-23T16:06:26;21.00;21.00;16.00
64570;PMS5003;61095;52.454;16.948;2023-05-23T16:11:26;22.33;22.33;16.67
64570;PMS5003;61095;52.454;16.948;2023-05-23T16:16:27;23.00;23.00;17.00
64570;PMS5003;61095;52.454;16.948;2023-05-23T16:21:29;24.00;22.00;17.00
64570;PMS5003;61095;52.454;16.948;2023-05-23T16:26:29;23.00;22.67;15.00
64570;PMS5003;61095;52.454;16.948;2023-05-23T16:31:30;24.00;23.00;15.00
64570;PMS5003;61095;52.454;16.948;2023-05-23T16:36:32;25.33;24.00;15.00
64570;PMS5003;61095;52.454;16.948;2023-05-23T16:41:32;23.00;22.00;15.00
64570;PMS5003;61095;52.454;16.948;2023-05-23T16:46:33;23.00;23.00;14.00
64570;PMS5003;61095;52.454;16.948;2023-05-23T16:51:34;22.67;22.67;14.67
64570;PMS5003;61095;52.454;16.948;2023-05-23T16:56:35;21.00;21.00;14.00
64570;PMS5003;61095;52.454;16.948;2023-05-23T17:01:35;23.33;23.33;14.00
64570;PMS5003;61095;52.454;16.948;2023-05-23T17:06:37;24.33;24.00;14.00
64570;PMS5003;61095;52.454;16.948;2023-05-23T17:11:37;24.00;24.00;15.00
64570;PMS5003;61095;52.454;16.948;2023-05-23T17:16:38;26.00;26.00;15.00
64570;PMS5003;61095;52.454;16.948;2023-05-23T17:21:40;24.00;24.00;14.33
64570;PMS5003;61095;52.454;16.948;2023-05-23T17:26:40;24.00;23.00;14.00
64570;PMS5003;61095;52.454;16.948;2023-05-23T17:31:41;24.67;23.67;14.67
64570;PMS5003;61095;52.454;16.948;2023-05-23T17:36:43;21.67;21.67;13.67
64570;PMS5003;61095;52.454;16.948;2023-05-23T17:41:43;20.67;20.67;13.00
64570;PMS5003;61095;52.454;16.948;2023-05-23T17:46:44;21.67;21.67;16.00
64570;PMS5003;61095;52.454;16.948;2023-05-23T17:51:45;24.00;23.33;17.00
64570;PMS5003;61095;52.454;16.948;2023-05-23T17:56:46;24.00;23.00;15.00
64570;PMS5003;61095;52.454;16.948;2023-05-23T18:01:46;22.00;20.67;15.00
64570;PMS5003;61095;52.454;16.948;2023-05-23T18:06:48;22.33;21.33;13.00
64570;PMS5003;61095;52.454;16.948;2023-05-23T18:11:49;22.67;22.00;13.00
64570;PMS5003;61095;52.454;16.948;2023-05-23T18:16:49;24.00;22.33;15.00
64570;PMS5003;61095;52.454;16.948;2023-05-23T18:21:51;22.00;21.00;16.33
64570;PMS5003;61095;52.454;16.948;2023-05-23T18:26:51;21.00;21.00;16.00
64570;PMS5003;61095;52.454;16.948;2023-05-23T18:31:51;21.67;21.33;15.67
64570;PMS5003;61095;52.454;16.948;2023-05-23T18:36:53;24.00;23.00;16.00
64570;PMS5003;61095;52.454;16.948;2023-05-23T18:41:53;23.00;21.00;16.00
64570;PMS5003;61095;52.454;16.948;2023-05-23T18:46:54;22.33;21.33;16.33
64570;PMS5003;61095;52.454;16.948;2023-05-23T18:51:55;22.33;22.33;16.67
64570;PMS5003;61095;52.454;16.948;2023-05-23T18:56:56;25.00;23.67;18.00
64570;PMS5003;61095;52.454;16.948;2023-05-23T19:01:56;24.00;24.00;17.00
64570;PMS5003;61095;52.454;16.948;2023-05-23T19:06:58;25.33;24.00;18.00
64570;PMS5003;61095;52.454;16.948;2023-05-23T19:11:58;26.67;25.00;17.33
64570;PMS5003;61095;52.454;16.948;2023-05-23T19:16:58;26.00;25.00;18.00
64570;PMS5003;61095;52.454;16.948;2023-05-23T19:22:00;26.00;24.00;17.00
64570;PMS5003;61095;52.454;16.948;2023-05-23T19:27:01;24.00;23.00;15.00
64570;PMS5003;61095;52.454;16.948;2023-05-23T19:32:01;27.00;26.00;16.00
64570;PMS5003;61095;52.454;16.948;2023-05-23T19:37:04;29.33;28.33;17.00
64570;PMS5003;61095;52.454;16.948;2023-05-23T19:42:04;28.00;27.00;18.00
64570;PMS5003;61095;52.454;16.948;2023-05-23T19:47:05;28.33;26.33;17.67
64570;PMS5003;61095;52.454;16.948;2023-05-23T19:52:07;28.00;27.00;18.33
64570;PMS5003;61095;52.454;16.948;2023-05-23T19:57:07;32.00;29.00;19.00
64570;PMS5003;61095;52.454;16.948;2023-05-23T20:02:08;31.67;29.00;19.00
64570;PMS5003;61095;52.454;16.948;2023-05-23T20:07:10;30.67;29.00;20.00
64570;PMS5003;61095;52.454;16.948;2023-05-23T20:12:10;32.67;30.33;20.00
64570;PMS5003;61095;52.454;16.948;2023-05-23T20:17:10;31.00;29.00;19.00
64570;PMS5003;61095;52.454;16.948;2023-05-23T20:22:12;28.00;28.00;18.33
64570;PMS5003;61095;52.454;16.948;2023-05-23T20:27:13;30.00;29.00;19.00
64570;PMS5003;61095;52.454;16.948;2023-05-23T20:32:14;30.00;29.00;19.00
64570;PMS5003;61095;52.454;16.948;2023-05-23T20:37:16;30.67;29.00;19.00
64570;PMS5003;61095;52.454;16.948;2023-05-23T20:42:16;31.33;29.33;19.00
64570;PMS5003;61095;52.454;16.948;2023-05-23T20:47:16;33.00;31.00;21.00
64570;PMS5003;61095;52.454;16.948;2023-05-23T20:52:18;33.00;31.00;20.67
64570;PMS5003;61095;52.454;16.948;2023-05-23T20:57:19;32.33;31.00;21.00
64570;PMS5003;61095;52.454;16.948;2023-05-23T21:02:19;33.00;31.00;21.00
64570;PMS5003;61095;52.454;16.948;2023-05-23T21:07:21;30.00;29.00;19.00
64570;PMS5003;61095;52.454;16.948;2023-05-23T21:12:21;31.00;30.00;19.67
64570;PMS5003;61095;52.454;16.948;2023-05-23T21:17:21;31.33;29.33;20.00
64570;PMS5003;61095;52.454;16.948;2023-05-23T21:22:23;31.33;30.00;20.00
64570;PMS5003;61095;52.454;16.948;2023-05-23T21:27:23;32.00;29.00;20.00
64570;PMS5003;61095;52.454;16.948;2023-05-23T21:32:24;33.00;31.00;21.00
64570;PMS5003;61095;52.454;16.948;2023-05-23T21:37:25;33.67;31.67;21.00
64570;PMS5003;61095;52.454;16.948;2023-05-23T21:42:26;34.00;31.00;22.00
64570;PMS5003;61095;52.454;16.948;2023-05-23T21:47:26;33.00;31.33;21.00
64570;PMS5003;61095;52.454;16.948;2023-05-23T21:52:28;32.33;31.00;20.00
64570;PMS5003;61095;52.454;16.948;2023-05-23T21:57:28;32.00;30.67;20.00
